Time;durP1;ratioP1;P1;durP2;ratioP2;P2;SDS_P1;SDS_P2;PMS_P1;PMS_P2;Temp;Humidity;BMP_temperature;BMP_pressure;BME280_temperature;BME280_humidity;BME280_pressure;Samples;Min_cycle;Max_cycle;Signal;HPM_P1;HPM_P2
2024/01/15 00:02:45;;;;;;;7.00;5.23;;;;;;;16.42;38.91;95757.97;10364958;28;20034;-30
2024/01/15 00:07:45;;;;;;;8.75;6.35;;;;;;;16.39;38.72;95745.38;10364105;28;20034;-30
2024/01/15 00:12:45;;;;;;;8.93;6.70;;;;;;;16.37;38.75;95732.75;10364967;28;20026;-29
2024/01/15 00:17:46;;;;;;;10.37;6.40;;;;;;;16.39;38.69;95718.44;10364376;28;20288;-30
2024/01/15 00:22:46;;;;;;;8.77;5.97;;;;;;;16.44;39.11;95714.19;10365577;28;20034;-30
2024/01/15 00:27:46;;;;;;;10.20;6.53;;;;;;;16.47;39.77;95709.13;10360113;28;20037;-31
2024/01/15 00:32:47;;;;;;;10.85;6.18;;;;;;;16.46;39.71;95697.31;10363891;28;20494;-30
2024/01/15 00:37:47;;;;;;;6.95;5.40;;;;;;;16.41;40.04;95688.94;10364670;28;20042;-29
2024/01/15 00:42:48;;;;;;;12.73;6.70;;;;;;;16.49;38.95;95692.25;10363472;28;20037;-30
2024/01/15 00:47:48;;;;;;;10.03;6.50;;;;;;;16.49;39.74;95692.25;10362988;28;20285;-30
2024/01/15 00:52:49;;;;;;;9.73;6.70;;;;;;;16.51;39.04;95685.50;10364373;28;20040;-31
2024/01/15 00:57:49;;;;;;;9.47;6.10;;;;;;;16.44;39.94;95683.03;10362973;28;20038;-30
2024/01/15 01:02:49;;;;;;;8.23;6.30;;;;;;;16.45;39.54;95683.00;10362890;28;20305;-30
2024/01/15 01:07:50;;;;;;;11.17;6.97;;;;;;;16.43;39.49;95682.19;10364315;28;20066;-30
2024/01/15 01:12:50;;;;;;;10.57;6.10;;;;;;;16.30;39.75;95650.28;10362803;28;20601;-29
2024/01/15 01:17:50;;;;;;;9.27;6.20;;;;;;;16.41;39.44;95661.16;10362577;28;20513;-30
2024/01/15 01:22:51;;;;;;;10.07;7.03;;;;;;;16.38;39.34;95668.75;10363354;28;20034;-30
2024/01/15 01:27:51;;;;;;;9.63;6.20;;;;;;;16.38;38.65;95668.75;10362942;28;20526;-30
2024/01/15 01:32:51;;;;;;;11.70;7.30;;;;;;;16.37;38.75;95672.13;10362634;28;20030;-29
2024/01/15 01:37:52;;;;;;;11.73;7.37;;;;;;;16.34;38.60;95667.09;10361196;28;20042;-31
2024/01/15 01:42:52;;;;;;;9.18;6.57;;;;;;;16.37;38.91;95662.03;10362504;28;20038;-29
2024/01/15 01:47:53;;;;;;;10.50;7.00;;;;;;;16.40;39.67;95646.88;10362123;28;20036;-29
2024/01/15 01:52:54;;;;;;;9.60;7.63;;;;;;;16.38;40.05;95651.06;10368028;28;20285;-32
2024/01/15 01:57:55;;;;;;;9.30;6.60;;;;;;;16.38;39.13;95647.72;10369083;28;20037;-30
2024/01/15 02:02:55;;;;;;;10.07;7.20;;;;;;;16.41;39.19;95647.69;10369387;28;20417;-29
2024/01/15 02:07:56;;;;;;;7.23;5.87;;;;;;;16.41;39.56;95651.06;10370839;28;20042;-30
2024/01/15 02:12:56;;;;;;;7.87;6.60;;;;;;;16.38;39.68;95638.44;10369387;28;20037;-29
2024/01/15 02:18:06;;;;;;;8.32;6.32;;;;;;;16.41;39.54;95653.59;10367251;28;20354;-30
2024/01/15 02:23:11;;;;;;;12.20;6.20;;;;;;;16.37;39.60;95638.47;10364311;28;20488;-30
2024/01/15 02:28:16;;;;;;;8.32;6.65;;;;;;;16.34;39.46;95631.72;10369600;28;20060;-30
2024/01/15 02:33:16;;;;;;;9.35;6.63;;;;;;;16.36;39.69;95629.19;10366441;28;20038;-30
2024/01/15 02:38:17;;;;;;;9.13;6.70;;;;;;;16.41;39.61;95635.91;10367568;28;20127;-29
2024/01/15 02:43:19;;;;;;;8.38;5.90;;;;;;;16.40;39.63;95636.75;10367296;28;20296;-29
2024/01/15 02:48:19;;;;;;;8.40;6.30;;;;;;;16.37;39.86;95621.63;10367559;28;20034;-29
2024/01/15 02:53:19;;;;;;;11.60;6.40;;;;;;;16.39;39.58;95630.03;10368718;28;20022;-30
2024/01/15 02:58:21;;;;;;;9.55;6.30;;;;;;;16.37;40.12;95628.38;10368220;28;20467;-30
2024/01/15 03:03:21;;;;;;;7.90;5.88;;;;;;;16.38;39.46;95628.34;10366452;28;20030;-30
2024/01/15 03:08:22;;;;;;;8.43;5.70;;;;;;;16.37;39.55;95621.63;10367829;28;20623;-28
2024/01/15 03:13:23;;;;;;;10.60;6.78;;;;;;;16.30;39.48;95617.44;10367394;28;20033;-29
2024/01/15 03:18:23;;;;;;;8.33;5.93;;;;;;;16.33;39.01;95612.38;10366022;28;20030;-30
2024/01/15 03:23:23;;;;;;;11.63;6.57;;;;;;;16.35;38.95;95623.28;10367044;28;20053;-29
2024/01/15 03:28:24;;;;;;;6.70;5.67;;;;;;;16.39;39.22;95616.56;10366736;28;20091;-30
2024/01/15 03:33:24;;;;;;;10.37;6.60;;;;;;;16.42;38.67;95619.91;10366046;28;20026;-29
2024/01/15 03:38:24;;;;;;;9.97;6.20;;;;;;;16.41;38.81;95619.91;10366765;28;20034;-29
2024/01/15 03:43:26;;;;;;;9.23;6.40;;;;;;;16.39;39.44;95607.31;10366784;28;20296;-32
2024/01/15 03:48:27;;;;;;;7.40;5.75;;;;;;;16.42;39.03;95619.91;10365286;28;20437;-30
2024/01/15 03:53:27;;;;;;;8.50;5.83;;;;;;;16.42;39.21;95616.53;10366144;28;20041;-29
2024/01/15 03:58:27;;;;;;;8.63;5.80;;;;;;;16.41;39.03;95618.22;10365849;28;20040;-29
2024/01/15 04:03:28;;;;;;;10.37;6.97;;;;;;;16.39;39.02;95602.25;10364775;28;20030;-30
2024/01/15 04:08:28;;;;;;;7.73;5.83;;;;;;;16.40;39.04;95600.56;10366098;28;20033;-30
2024/01/15 04:13:31;;;;;;;8.93;6.20;;;;;;;16.38;38.95;95597.22;10364055;28;20083;-29
2024/01/15 04:18:32;;;;;;;8.43;6.53;;;;;;;16.37;39.22;95596.38;10363612;28;20296;-29
2024/01/15 04:23:33;;;;;;;10.52;6.22;;;;;;;16.37;39.11;95605.66;10364630;28;20041;-29
2024/01/15 04:28:33;;;;;;;7.22;5.80;;;;;;;16.36;39.59;95599.72;10363641;28;20033;-30
2024/01/15 04:33:33;;;;;;;9.20;6.90;;;;;;;16.37;39.03;95615.75;10363792;28;20030;-29
2024/01/15 04:38:36;;;;;;;7.10;6.00;;;;;;;16.37;39.36;95611.50;10364709;28;20030;-30
2024/01/15 04:43:36;;;;;;;9.38;6.32;;;;;;;16.37;38.85;95611.50;10362137;28;20490;-29
2024/01/15 04:48:36;;;;;;;7.27;5.67;;;;;;;16.38;38.57;95617.41;10363089;28;20026;-31
2024/01/15 04:53:37;;;;;;;8.07;6.43;;;;;;;16.39;37.56;95625.00;10363758;28;20034;-30
2024/01/15 04:58:37;;;;;;;8.18;6.50;;;;;;;16.41;38.61;95627.47;10363211;28;20296;-29
2024/01/15 05:03:38;;;;;;;9.50;6.68;;;;;;;16.41;38.34;95628.34;10360823;28;20046;-30
2024/01/15 05:08:38;;;;;;;7.43;6.22;;;;;;;16.42;38.13;95619.91;10364259;28;20044;-31
2024/01/15 05:13:38;;;;;;;9.20;6.50;;;;;;;16.42;38.30;95624.94;10361028;28;20033;-31
2024/01/15 05:18:39;;;;;;;8.30;6.13;;;;;;;16.44;38.06;95625.75;10358597;28;20372;-29
2024/01/15 05:23:39;;;;;;;10.37;7.37;;;;;;;16.42;36.65;95630.00;10354398;28;20033;-30
2024/01/15 05:28:43;;;;;;;10.33;7.23;;;;;;;16.44;37.33;95622.41;10336516;28;20037;-30
2024/01/15 05:33:45;;;;;;;10.02;7.00;;;;;;;16.45;36.07;95624.91;10339169;28;20398;-30
2024/01/15 05:38:46;;;;;;;12.82;7.07;;;;;;;16.38;38.01;95623.28;10342225;28;20042;-29
2024/01/15 05:43:46;;;;;;;7.97;6.57;;;;;;;16.30;36.89;95607.34;10374333;28;20045;-30
2024/01/15 05:48:47;;;;;;;12.20;8.03;;;;;;;16.37;36.52;95611.50;10375632;28;20810;-30
2024/01/15 05:53:47;;;;;;;12.30;8.20;;;;;;;16.33;37.11;95609.84;10376398;28;20689;-30
2024/01/15 05:58:47;;;;;;;12.40;7.97;;;;;;;16.46;36.75;95606.38;10373688;28;20687;-29
2024/01/15 06:03:48;;;;;;;11.50;7.93;;;;;;;16.43;38.55;95601.38;10373721;28;20490;-31
2024/01/15 06:08:48;;;;;;;10.32;7.20;;;;;;;16.48;39.13;95603.84;10375436;28;20041;-29
2024/01/15 06:13:48;;;;;;;11.23;6.73;;;;;;;16.48;37.87;95608.91;10374513;28;20045;-30
2024/01/15 06:18:49;;;;;;;12.27;6.87;;;;;;;16.42;38.38;95597.16;10374748;28;20041;-30
2024/01/15 06:23:49;;;;;;;10.35;7.53;;;;;;;16.38;38.42;95592.97;10375246;28;20030;-29
2024/01/15 06:28:50;;;;;;;20.03;12.57;;;;;;;15.69;34.97;95598.59;10374946;28;20048;-29
2024/01/15 06:33:50;;;;;;;21.35;13.52;;;;;;;15.49;34.94;95575.22;10373671;28;20299;-29
2024/01/15 06:38:50;;;;;;;16.05;10.75;;;;;;;15.94;37.06;95597.56;10369343;28;20490;-30
2024/01/15 06:43:51;;;;;;;16.93;10.07;;;;;;;16.06;38.61;95589.06;10366897;28;20032;-31
2024/01/15 06:48:51;;;;;;;14.07;7.80;;;;;;;16.13;39.04;95585.63;10367060;28;20322;-30
2024/01/15 06:53:51;;;;;;;13.20;8.47;;;;;;;16.16;39.56;95581.41;10368372;28;20372;-30
2024/01/15 06:58:52;;;;;;;11.60;8.40;;;;;;;16.11;39.84;95567.97;10367203;28;20038;-31
2024/01/15 07:03:52;;;;;;;11.23;7.63;;;;;;;16.18;39.70;95567.06;10366386;28;20049;-31
2024/01/15 07:08:52;;;;;;;13.03;7.80;;;;;;;16.19;39.66;95568.72;10367557;28;20030;-30
2024/01/15 07:13:53;;;;;;;9.27;7.57;;;;;;;16.21;40.13;95573.78;10366671;28;20061;-31
2024/01/15 07:18:53;;;;;;;10.73;8.03;;;;;;;16.23;38.89;95572.91;10366440;28;20029;-31
2024/01/15 07:23:53;;;;;;;11.37;6.97;;;;;;;16.27;39.74;95574.56;10366963;28;20079;-30
2024/01/15 07:28:54;;;;;;;9.10;6.70;;;;;;;16.28;39.08;95545.91;10366318;28;20127;-30
2024/01/15 07:33:54;;;;;;;11.27;6.90;;;;;;;16.28;39.21;95538.34;10365757;28;20038;-29
2024/01/15 07:38:55;;;;;;;8.53;6.40;;;;;;;16.27;39.48;95539.19;10367078;28;20029;-30
2024/01/15 07:43:55;;;;;;;10.70;7.03;;;;;;;16.21;38.57;95526.63;10365074;28;20371;-30
2024/01/15 07:48:57;;;;;;;9.53;7.20;;;;;;;16.26;39.11;95540.06;10365379;28;20026;-30
2024/01/15 07:53:58;;;;;;;9.93;6.60;;;;;;;16.27;39.09;95540.91;10366055;28;20060;-30
2024/01/15 07:58:59;;;;;;;9.15;6.30;;;;;;;16.26;39.04;95547.63;10363121;28;20134;-30
2024/01/15 08:03:59;;;;;;;10.00;6.65;;;;;;;16.24;39.05;95554.38;10364236;28;20060;-30
2024/01/15 08:08:59;;;;;;;8.25;6.35;;;;;;;16.21;38.84;95564.50;10365423;28;20435;-30
2024/01/15 08:14:00;;;;;;;9.50;6.53;;;;;;;16.21;39.53;95564.50;10364730;28;20437;-30
2024/01/15 08:19:00;;;;;;;9.15;6.70;;;;;;;16.26;38.69;95550.16;10364391;28;20029;-29
2024/01/15 08:24:04;;;;;;;9.77;6.80;;;;;;;16.26;39.03;95537.53;10364519;28;20049;-30
2024/01/15 08:29:04;;;;;;;9.40;6.57;;;;;;;16.25;38.89;95524.91;10363703;28;20429;-29
2024/01/15 08:34:05;;;;;;;7.67;5.97;;;;;;;16.26;39.21;95537.53;10363876;28;20038;-30
2024/01/15 08:39:06;;;;;;;8.53;6.37;;;;;;;16.29;39.00;95546.75;10364595;28;20084;-29
2024/01/15 08:44:06;;;;;;;9.45;6.43;;;;;;;16.25;38.60;95545.97;10363321;28;20040;-30
2024/01/15 08:49:07;;;;;;;8.30;5.68;;;;;;;16.25;39.11;95532.47;10363734;28;20049;-30
2024/01/15 08:54:08;;;;;;;9.25;6.30;;;;;;;16.23;39.07;95526.63;10363947;28;20038;-30
2024/01/15 08:59:08;;;;;;;7.85;6.13;;;;;;;16.21;38.82;95524.09;10363241;28;20038;-29
2024/01/15 09:04:09;;;;;;;6.75;5.25;;;;;;;16.20;39.41;95519.91;10362499;28;20042;-30
2024/01/15 09:09:10;;;;;;;7.77;5.50;;;;;;;16.19;39.10;95530.84;10364263;28;20486;-30
2024/01/15 09:14:10;;;;;;;6.78;5.70;;;;;;;16.17;39.43;95516.56;10362754;28;20030;-30
2024/01/15 09:19:11;;;;;;;6.70;5.17;;;;;;;16.17;39.36;95517.41;10362973;28;20046;-30
2024/01/15 09:24:11;;;;;;;6.63;5.73;;;;;;;16.14;39.36;95502.31;10362756;28;20100;-31
2024/01/15 09:29:11;;;;;;;6.00;5.10;;;;;;;16.16;39.27;95500.59;10360451;28;20034;-29
2024/01/15 09:34:12;;;;;;;7.40;4.87;;;;;;;16.16;38.92;95485.47;10362499;28;20050;-29
2024/01/15 09:39:12;;;;;;;6.68;4.97;;;;;;;16.17;39.03;95487.13;10362824;28;20056;-31
2024/01/15 09:44:13;;;;;;;5.13;3.80;;;;;;;16.22;39.00;95462.69;10363024;28;20184;-31
2024/01/15 09:49:13;;;;;;;6.28;5.10;;;;;;;16.20;39.36;95469.41;10362833;28;20038;-30
2024/01/15 09:54:17;;;;;;;5.93;5.17;;;;;;;16.23;39.06;95482.03;10362686;28;20072;-29
2024/01/15 09:59:18;;;;;;;6.20;4.55;;;;;;;16.21;38.96;95483.69;10362485;28;20026;-30
2024/01/15 10:04:19;;;;;;;5.70;4.30;;;;;;;16.18;39.35;95477.88;10361316;28;20042;-30
2024/01/15 10:09:19;;;;;;;6.33;4.60;;;;;;;16.15;39.34;95476.22;10362622;28;20095;-30
2024/01/15 10:14:19;;;;;;;5.30;4.03;;;;;;;16.18;38.81;95481.22;10364844;28;20386;-30
2024/01/15 10:19:22;;;;;;;5.97;4.23;;;;;;;16.17;39.39;95477.03;10368553;28;20044;-29
2024/01/15 10:24:24;;;;;;;4.47;3.50;;;;;;;16.14;38.84;95477.06;10369502;28;20077;-30
2024/01/15 10:29:24;;;;;;;3.83;3.40;;;;;;;16.15;39.13;95476.22;10368993;28;20045;-30
2024/01/15 10:34:25;;;;;;;4.63;3.17;;;;;;;16.15;38.45;95488.84;10368569;28;20517;-30
2024/01/15 10:39:25;;;;;;;4.75;3.53;;;;;;;16.15;39.43;95478.75;10369264;28;20134;-30
2024/01/15 10:44:25;;;;;;;4.40;3.72;;;;;;;16.14;39.40;95479.59;10367859;28;20046;-30
2024/01/15 10:49:28;;;;;;;4.60;3.50;;;;;;;16.13;38.80;95484.66;10367186;28;20049;-30
2024/01/15 10:54:29;;;;;;;4.18;3.08;;;;;;;16.12;39.21;95478.75;10364506;28;20041;-30
2024/01/15 10:59:29;;;;;;;3.75;3.35;;;;;;;16.15;38.72;95488.84;10367206;28;20033;-30
2024/01/15 11:04:32;;;;;;;3.80;3.45;;;;;;;16.15;39.79;95483.78;10366547;28;20061;-30
2024/01/15 11:09:32;;;;;;;4.63;2.85;;;;;;;16.16;39.39;95500.59;10367519;28;20069;-27
2024/01/15 11:14:39;;;;;;;3.40;2.60;;;;;;;16.12;39.29;95493.91;10363950;28;20482;-29
2024/01/15 11:19:52;;;;;;;3.35;3.05;;;;;;;16.15;39.61;95506.50;10366512;28;20120;-30
2024/01/15 11:24:53;;;;;;;3.60;2.85;;;;;;;16.15;40.20;95498.94;10366721;28;20116;-30
2024/01/15 11:30:07;;;;;;;3.08;2.78;;;;;;;16.21;40.61;95496.31;10366208;28;20049;-30
2024/01/15 11:35:09;;;;;;;3.67;3.25;;;;;;;16.23;41.00;95502.22;10362873;28;20417;-29
2024/01/15 11:40:11;;;;;;;4.80;2.97;;;;;;;16.11;37.60;95497.28;10366798;28;20038;-30
2024/01/15 11:45:12;;;;;;;4.10;3.05;;;;;;;16.26;40.81;95487.03;10365378;28;20453;-29
2024/01/15 11:50:12;;;;;;;3.77;3.10;;;;;;;16.28;39.48;95490.34;10365069;28;20037;-30
2024/01/15 11:55:26;;;;;;;4.10;2.93;;;;;;;16.36;39.64;95506.25;10364894;28;20038;-29
2024/01/15 12:00:28;;;;;;;22.85;6.75;;;;;;;16.38;40.47;95507.09;10365758;28;20308;-29
2024/01/15 12:05:28;;;;;;;26.75;13.82;;;;;;;16.40;40.66;95515.53;10364910;28;20041;-29
2024/01/15 12:10:30;;;;;;;25.10;11.82;;;;;;;16.40;40.55;95510.47;10365249;28;20100;-30
2024/01/15 12:15:31;;;;;;;20.23;11.90;;;;;;;16.41;39.67;95491.09;10364038;28;20361;-31
2024/01/15 12:20:32;;;;;;;26.73;12.32;;;;;;;16.43;39.37;95480.13;10363712;28;20190;-30
2024/01/15 12:25:34;;;;;;;18.00;11.00;;;;;;;16.47;39.15;95459.03;10364126;28;20059;-30
2024/01/15 12:30:35;;;;;;;23.48;13.60;;;;;;;16.49;39.18;95441.31;10364738;28;20433;-30
2024/01/15 12:35:36;;;;;;;22.95;14.13;;;;;;;16.51;38.97;95429.50;10363061;28;20033;-30
2024/01/15 12:40:37;;;;;;;22.63;13.77;;;;;;;16.49;38.94;95449.75;10362993;28;20033;-30
2024/01/15 12:45:37;;;;;;;24.43;14.87;;;;;;;16.52;39.85;95459.81;10364416;28;20049;-30
2024/01/15 12:50:38;;;;;;;24.48;13.95;;;;;;;16.51;38.62;95458.13;10363520;28;20046;-30
2024/01/15 12:55:38;;;;;;;26.40;15.47;;;;;;;16.53;39.23;95456.41;10356979;28;20414;-31
2024/01/15 13:00:41;;;;;;;25.77;15.43;;;;;;;16.51;40.55;95458.13;10362824;28;20519;-30
2024/01/15 13:05:41;;;;;;;25.35;13.15;;;;;;;16.54;37.78;95453.03;10363156;28;20072;-31
2024/01/15 13:10:44;;;;;;;17.90;10.47;;;;;;;16.55;36.65;95447.13;10363158;28;20064;-31
2024/01/15 13:15:44;;;;;;;23.30;12.32;;;;;;;16.55;38.94;95458.94;10362645;28;20133;-30
2024/01/15 13:20:45;;;;;;;25.40;11.87;;;;;;;16.54;38.99;95473.25;10361185;28;20390;-29
2024/01/15 13:25:46;;;;;;;25.58;10.73;;;;;;;16.49;37.90;95480.06;10362743;28;20497;-29
2024/01/15 13:30:47;;;;;;;21.15;11.35;;;;;;;16.47;38.65;95464.09;10362063;28;20022;-30
2024/01/15 13:35:49;;;;;;;17.20;11.18;;;;;;;16.59;37.88;95476.56;10362072;28;20029;-31
2024/01/15 13:40:50;;;;;;;15.65;9.80;;;;;;;16.60;38.33;95480.75;10361848;28;20033;-30
2024/01/15 13:45:50;;;;;;;16.00;8.47;;;;;;;16.63;37.26;95503.44;10363526;28;20029;-30
2024/01/15 13:50:51;;;;;;;18.08;9.98;;;;;;;16.67;37.03;95505.09;10367375;28;20358;-30
2024/01/15 13:55:51;;;;;;;15.33;9.60;;;;;;;16.67;37.90;95515.19;10368291;28;20030;-29
2024/01/15 14:00:52;;;;;;;20.77;10.75;;;;;;;16.64;38.61;95517.78;10365631;28;20029;-30
2024/01/15 14:05:52;;;;;;;17.25;10.02;;;;;;;16.64;38.85;95525.34;10368684;28;20506;-31
2024/01/15 14:10:54;;;;;;;14.27;9.07;;;;;;;16.66;37.66;95527.84;10368872;28;20037;-30
2024/01/15 14:15:55;;;;;;;17.67;9.82;;;;;;;16.66;38.17;95528.69;10369751;28;20026;-30
2024/01/15 14:20:56;;;;;;;12.77;8.60;;;;;;;16.64;38.63;95538.00;10367884;28;20502;-30
2024/01/15 14:25:56;;;;;;;14.33;9.70;;;;;;;16.64;40.80;95547.25;10368584;28;20026;-29
2024/01/15 14:30:59;;;;;;;16.17;10.07;;;;;;;16.63;40.32;95553.16;10369436;28;20034;-30
2024/01/15 14:36:00;;;;;;;14.32;9.07;;;;;;;16.61;39.58;95575.91;10361991;28;20041;-30
2024/01/15 14:41:01;;;;;;;13.90;9.40;;;;;;;16.59;41.83;95582.66;10367325;28;20493;-30
2024/01/15 14:46:01;;;;;;;15.55;10.15;;;;;;;16.60;40.97;95583.53;10369552;28;20033;-29
2024/01/15 14:51:03;;;;;;;14.43;8.80;;;;;;;16.60;38.83;95594.44;10367549;28;20516;-29
2024/01/15 14:56:03;;;;;;;13.82;8.27;;;;;;;16.60;41.52;95591.91;10367932;28;20049;-31
2024/01/15 15:01:04;;;;;;;13.70;8.07;;;;;;;16.62;41.59;95586.88;10367315;28;20034;-29
2024/01/15 15:06:04;;;;;;;19.73;7.03;;;;;;;16.51;39.85;95586.97;10367275;28;20042;-30
2024/01/15 15:11:05;;;;;;;13.30;7.85;;;;;;;16.53;43.15;95594.53;10367865;28;20034;-30
2024/01/15 15:16:06;;;;;;;15.93;9.13;;;;;;;16.53;43.27;95602.94;10366524;28;20046;-30
2024/01/15 15:21:08;;;;;;;14.63;8.75;;;;;;;16.56;42.06;95602.94;10366452;28;20401;-29
2024/01/15 15:26:09;;;;;;;12.90;7.25;;;;;;;16.61;39.27;95613.81;10367403;28;20044;-29
2024/01/15 15:31:11;;;;;;;10.65;6.10;;;;;;;16.67;37.96;95630.59;10366441;28;20038;-29
2024/01/15 15:36:11;;;;;;;11.88;6.60;;;;;;;16.67;39.27;95641.53;10365598;28;20489;-29
2024/01/15 15:41:12;;;;;;;8.90;6.33;;;;;;;16.67;37.65;95647.41;10365532;28;20037;-29
2024/01/15 15:46:12;;;;;;;9.40;5.15;;;;;;;16.71;37.39;95663.38;10366940;28;20320;-31
2024/01/15 15:51:13;;;;;;;7.57;5.00;;;;;;;16.68;38.04;95655.84;10365175;28;20084;-30
2024/01/15 15:56:13;;;;;;;7.93;4.97;;;;;;;16.69;37.62;95649.94;10364843;28;20025;-29
2024/01/15 16:01:13;;;;;;;9.07;4.90;;;;;;;16.70;37.70;95650.78;10365100;28;20494;-29
2024/01/15 16:06:14;;;;;;;8.30;5.00;;;;;;;16.70;37.82;95651.59;10364575;28;20449;-30
2024/01/15 16:11:14;;;;;;;6.95;5.30;;;;;;;16.73;37.89;95665.91;10364096;28;20375;-30
2024/01/15 16:16:15;;;;;;;7.70;4.43;;;;;;;16.72;38.19;95669.28;10365565;28;20040;-29
2024/01/15 16:21:15;;;;;;;6.13;4.82;;;;;;;16.72;37.77;95685.31;10363670;28;20080;-31
2024/01/15 16:26:15;;;;;;;6.87;4.17;;;;;;;16.72;37.40;95680.25;10364254;28;20029;-30
2024/01/15 16:31:16;;;;;;;6.33;4.57;;;;;;;16.73;36.40;95681.94;10364504;28;20022;-30
2024/01/15 16:36:17;;;;;;;6.90;4.63;;;;;;;16.73;36.71;95685.28;10364004;28;20576;-30
2024/01/15 16:41:17;;;;;;;5.07;3.90;;;;;;;16.74;37.50;95691.19;10363999;28;20064;-30
2024/01/15 16:46:18;;;;;;;6.07;3.95;;;;;;;16.73;37.15;95691.19;10364147;28;20036;-30
2024/01/15 16:51:19;;;;;;;5.40;4.00;;;;;;;16.73;37.24;95709.72;10362497;28;21218;-31
2024/01/15 16:56:20;;;;;;;4.35;3.50;;;;;;;16.70;36.73;95719.03;10364145;28;20053;-30
2024/01/15 17:01:20;;;;;;;4.50;3.58;;;;;;;16.76;36.03;95732.44;10362533;28;20572;-30
2024/01/15 17:06:20;;;;;;;6.55;3.83;;;;;;;16.77;35.92;95733.28;10363032;28;20513;-30
2024/01/15 17:11:21;;;;;;;6.23;4.43;;;;;;;16.76;37.15;95752.66;10363031;28;20037;-30
2024/01/15 17:16:21;;;;;;;5.93;3.67;;;;;;;16.76;36.21;95755.19;10360810;28;20765;-29
2024/01/15 17:21:21;;;;;;;6.57;4.23;;;;;;;16.81;34.93;95768.63;10360522;28;20042;-30
2024/01/15 17:26:22;;;;;;;5.80;4.33;;;;;;;16.81;34.63;95768.63;10362312;28;20067;-29
2024/01/15 17:31:23;;;;;;;5.97;4.55;;;;;;;16.84;34.30;95778.69;10362116;28;20469;-30
2024/01/15 17:36:23;;;;;;;6.68;4.82;;;;;;;16.85;34.58;95780.38;10361449;28;20044;-30
2024/01/15 17:41:24;;;;;;;6.13;4.70;;;;;;;16.85;34.90;95803.13;10362665;28;20041;-30
2024/01/15 17:46:24;;;;;;;5.38;4.85;;;;;;;16.89;34.44;95814.91;10362195;28;20488;-31
2024/01/15 17:51:25;;;;;;;7.82;5.95;;;;;;;16.90;34.39;95822.44;10361597;28;20549;-29
2024/01/15 17:56:25;;;;;;;6.87;5.13;;;;;;;16.91;34.63;95823.31;10358704;28;20037;-30
2024/01/15 18:01:27;;;;;;;6.55;5.10;;;;;;;16.93;34.27;95831.72;10359071;28;20280;-30
2024/01/15 18:06:27;;;;;;;7.93;5.60;;;;;;;16.91;34.11;95838.47;10361450;28;20422;-31
2024/01/15 18:11:28;;;;;;;7.87;5.83;;;;;;;16.90;35.14;95851.97;10360742;28;20030;-31
2024/01/15 18:16:28;;;;;;;7.05;5.43;;;;;;;16.87;35.06;95868.00;10362890;28;20034;-29
2024/01/15 18:21:29;;;;;;;7.53;5.43;;;;;;;16.86;34.16;95875.56;10361237;28;20493;-28
2024/01/15 18:26:30;;;;;;;7.88;5.93;;;;;;;16.86;35.80;95878.97;10360871;28;20304;-30
2024/01/15 18:31:30;;;;;;;6.53;5.47;;;;;;;16.89;35.62;95885.69;10361122;28;20440;-30
2024/01/15 18:36:30;;;;;;;8.20;5.82;;;;;;;16.88;36.24;95896.63;10367828;28;20319;-32
2024/01/15 18:41:31;;;;;;;7.50;5.20;;;;;;;16.90;36.06;95910.13;10368166;28;20030;-31
2024/01/15 18:46:32;;;;;;;8.75;5.95;;;;;;;16.91;38.72;95925.25;10369021;28;20037;-31
2024/01/15 18:51:32;;;;;;;8.30;5.82;;;;;;;16.95;36.56;95929.44;10367461;28;20026;-30
2024/01/15 18:56:35;;;;;;;6.23;5.20;;;;;;;16.92;37.22;95946.31;10365900;28;20041;-29
2024/01/15 19:01:36;;;;;;;8.00;5.68;;;;;;;16.93;37.11;95938.75;10362620;28;20292;-31
2024/01/15 19:06:37;;;;;;;7.00;5.00;;;;;;;16.97;36.79;95949.66;10366970;28;20022;-31
2024/01/15 19:11:38;;;;;;;8.60;4.53;;;;;;;17.00;36.91;95947.94;10367237;28;20057;-30
2024/01/15 19:16:38;;;;;;;8.10;4.93;;;;;;;17.02;37.25;95963.13;10365475;28;20044;-30
2024/01/15 19:21:38;;;;;;;6.77;5.40;;;;;;;17.01;37.36;95953.84;10377025;28;20042;-30
2024/01/15 19:26:39;;;;;;;12.33;6.00;;;;;;;16.90;38.48;95964.03;10363367;28;20111;-30
2024/01/15 19:31:39;;;;;;;7.83;5.83;;;;;;;16.94;38.63;95964.84;10362597;28;20560;-30
2024/01/15 19:36:40;;;;;;;7.10;5.37;;;;;;;16.95;38.98;95969.06;10362803;28;20037;-29
2024/01/15 19:41:40;;;;;;;9.55;5.97;;;;;;;16.95;38.44;95971.56;10360609;28;20316;-31
2024/01/15 19:46:40;;;;;;;8.73;5.47;;;;;;;16.96;38.30;95979.16;10362456;28;20379;-30
2024/01/15 19:51:41;;;;;;;8.77;5.90;;;;;;;16.99;39.35;95978.31;10359399;28;20026;-30
2024/01/15 19:56:41;;;;;;;10.00;6.20;;;;;;;16.94;42.36;95978.34;10362188;28;20280;-30
2024/01/15 20:01:41;;;;;;;10.13;5.95;;;;;;;16.90;41.72;95980.91;10360185;28;20380;-31
2024/01/15 20:06:42;;;;;;;11.60;6.27;;;;;;;16.87;41.96;95998.59;10362147;28;20042;-29
2024/01/15 20:11:44;;;;;;;6.82;5.43;;;;;;;16.89;39.91;96001.97;10361035;28;20030;-30
2024/01/15 20:16:44;;;;;;;7.32;5.68;;;;;;;16.87;41.65;96004.50;10360252;28;20414;-30
2024/01/15 20:21:45;;;;;;;6.97;5.07;;;;;;;16.94;41.85;96015.41;10360193;28;20052;-30
2024/01/15 20:26:45;;;;;;;5.77;4.93;;;;;;;16.89;41.43;96012.91;10360359;28;20038;-31
2024/01/15 20:31:47;;;;;;;7.93;5.47;;;;;;;16.95;41.84;96017.09;10360309;28;20076;-30
2024/01/15 20:36:47;;;;;;;7.93;5.35;;;;;;;16.95;41.53;96023.00;10361331;28;20080;-31
2024/01/15 20:41:49;;;;;;;7.82;4.60;;;;;;;16.95;42.85;96019.63;10359444;28;20026;-30
2024/01/15 20:46:49;;;;;;;8.48;4.68;;;;;;;16.95;42.77;96019.63;10358791;28;20040;-30
2024/01/15 20:51:52;;;;;;;6.80;5.15;;;;;;;16.94;43.62;96025.53;10358748;28;20383;-30
2024/01/15 20:56:53;;;;;;;6.95;4.97;;;;;;;16.96;42.67;96033.94;10359801;28;20436;-29
2024/01/15 21:01:53;;;;;;;5.03;4.40;;;;;;;17.03;41.98;96030.53;10355656;28;20034;-30
2024/01/15 21:06:56;;;;;;;7.40;4.95;;;;;;;16.98;42.79;96037.31;10360044;28;20506;-31
2024/01/15 21:11:56;;;;;;;8.75;5.63;;;;;;;16.98;43.86;96028.03;10358700;28;20057;-30
2024/01/15 21:16:56;;;;;;;7.00;5.50;;;;;;;16.92;42.54;96024.69;10359055;28;20026;-31
2024/01/15 21:21:57;;;;;;;8.60;4.63;;;;;;;16.95;41.97;96038.16;10359461;28;20305;-30
2024/01/15 21:26:58;;;;;;;5.63;4.40;;;;;;;16.93;42.67;96041.53;10359275;28;20108;-31
2024/01/15 21:31:58;;;;;;;6.70;5.10;;;;;;;16.92;43.08;96045.75;10359016;28;20084;-30
2024/01/15 21:36:59;;;;;;;8.23;5.85;;;;;;;16.90;43.05;96044.09;10359662;28;20156;-30
2024/01/15 21:41:59;;;;;;;6.77;5.27;;;;;;;16.90;42.36;96042.41;10358535;28;20057;-31
2024/01/15 21:46:59;;;;;;;9.33;5.93;;;;;;;16.92;42.30;96047.44;10356783;28;20409;-30
2024/01/15 21:52:00;;;;;;;9.33;5.90;;;;;;;16.91;42.32;96050.84;10358078;28;20041;-30
2024/01/15 21:57:00;;;;;;;6.87;5.73;;;;;;;16.89;42.11;96048.31;10358312;28;20417;-30
2024/01/15 22:02:04;;;;;;;7.50;5.15;;;;;;;16.90;40.21;96054.22;10358016;28;20497;-30
2024/01/15 22:07:04;;;;;;;6.85;5.03;;;;;;;16.90;41.77;96049.16;10362317;28;20111;-29
2024/01/15 22:12:05;;;;;;;6.22;4.45;;;;;;;16.89;40.59;96062.66;10369425;28;20055;-30
2024/01/15 22:17:05;;;;;;;5.40;4.50;;;;;;;16.90;39.06;96069.38;10369532;28;20045;-30
2024/01/15 22:22:06;;;;;;;7.05;4.47;;;;;;;16.89;39.89;96072.75;10369837;28;20056;-30
2024/01/15 22:27:06;;;;;;;5.33;4.13;;;;;;;16.89;38.31;96067.69;10368538;28;20044;-30
2024/01/15 22:32:06;;;;;;;9.37;4.43;;;;;;;16.89;39.29;96072.75;10365747;28;20037;-30
2024/01/15 22:37:07;;;;;;;6.07;3.80;;;;;;;16.89;39.68;96078.63;10369543;28;20784;-30
2024/01/15 22:42:08;;;;;;;5.67;4.67;;;;;;;16.89;39.75;96077.81;10367789;28;20328;-30
2024/01/15 22:47:09;;;;;;;6.35;4.57;;;;;;;16.87;40.02;96079.47;10368780;28;20049;-30
2024/01/15 22:52:09;;;;;;;6.97;4.68;;;;;;;16.89;40.12;96077.81;10369050;28;20056;-31
2024/01/15 22:57:09;;;;;;;5.47;4.33;;;;;;;16.82;39.29;96079.50;10367650;28;20509;-30
2024/01/15 23:02:10;;;;;;;7.00;4.33;;;;;;;16.88;39.61;96097.19;10367613;28;20620;-29
2024/01/15 23:07:13;;;;;;;6.28;3.65;;;;;;;16.87;39.69;96087.06;10368722;28;20082;-30
2024/01/15 23:12:13;;;;;;;6.47;4.70;;;;;;;16.88;40.48;96096.34;10367236;28;20030;-30